Time;durP1;ratioP1;P1;durP2;ratioP2;P2;SDS_P1;SDS_P2;PMS_P1;PMS_P2;Temp;Humidity;BMP_temperature;BMP_pressure;BME280_temperature;BME280_humidity;BME280_pressure;Samples;Min_cycle;Max_cycle;Signal;HPM_P1;HPM_P2
2023/09/14 00:02:20;;;;;;;5.13;2.03;;;;;13.60;101731.00;;;;4925238;29;21088;-73
2023/09/14 00:05:07;;;;;;;6.97;2.27;;;;;13.60;101723.00;;;;4916141;29;20241;-73
2023/09/14 00:07:58;;;;;;;3.53;2.10;;;;;13.60;101731.00;;;;4928570;29;20333;-73
2023/09/14 00:10:44;;;;;;;5.27;2.00;;;;;13.50;101733.00;;;;4916682;29;20309;-73
2023/09/14 00:13:31;;;;;;;3.37;1.90;;;;;13.50;101727.00;;;;4921655;29;20335;-73
2023/09/14 00:16:18;;;;;;;3.83;1.90;;;;;13.50;101739.00;;;;4926762;29;20739;-73
2023/09/14 00:19:04;;;;;;;5.37;1.90;;;;;13.40;101731.00;;;;4923995;29;20303;-74
2023/09/14 00:21:50;;;;;;;2.93;2.10;;;;;13.50;101731.00;;;;4925375;28;20232;-71
2023/09/14 00:24:38;;;;;;;3.60;1.90;;;;;13.40;101722.00;;;;4925335;29;20253;-74
2023/09/14 00:27:24;;;;;;;4.53;2.30;;;;;13.50;101727.00;;;;4925012;29;20233;-75
2023/09/14 00:30:11;;;;;;;9.17;2.50;;;;;13.50;101720.00;;;;4921437;29;20233;-73
2023/09/14 00:32:58;;;;;;;9.00;2.10;;;;;13.50;101731.00;;;;4924081;28;20364;-72
2023/09/14 00:35:46;;;;;;;5.47;2.10;;;;;13.60;101728.00;;;;4926245;28;20245;-75
2023/09/14 00:38:33;;;;;;;6.23;2.27;;;;;13.60;101720.00;;;;4929107;29;20332;-73
2023/09/14 00:41:20;;;;;;;3.40;2.20;;;;;13.60;101734.00;;;;4921877;28;20240;-74
2023/09/14 00:44:06;;;;;;;5.70;2.20;;;;;13.60;101728.00;;;;4920854;29;20241;-73
2023/09/14 00:46:53;;;;;;;5.70;2.40;;;;;13.70;101719.00;;;;4923932;29;20292;-70
2023/09/14 00:49:39;;;;;;;4.50;2.30;;;;;13.70;101732.00;;;;4931179;28;20729;-72
2023/09/14 00:52:26;;;;;;;5.33;2.33;;;;;13.70;101734.00;;;;4922708;28;20836;-74
2023/09/14 00:55:17;;;;;;;5.03;2.20;;;;;13.80;101733.00;;;;4920958;28;20241;-73
2023/09/14 00:58:05;;;;;;;5.00;1.97;;;;;13.80;101727.00;;;;4926219;29;20754;-71
2023/09/14 01:00:51;;;;;;;4.50;2.00;;;;;13.80;101720.00;;;;4919367;29;20856;-73
2023/09/14 01:03:38;;;;;;;8.83;2.30;;;;;13.80;101724.00;;;;4925875;29;20360;-74
2023/09/14 01:06:25;;;;;;;8.70;2.30;;;;;13.80;101722.00;;;;4911000;29;20370;-75
2023/09/14 01:09:12;;;;;;;5.93;2.47;;;;;13.80;101719.00;;;;4917942;29;20230;-72
2023/09/14 01:11:59;;;;;;;3.87;2.17;;;;;13.80;101721.00;;;;4926566;29;20662;-74
2023/09/14 01:14:56;;;;;;;5.37;2.23;;;;;13.80;101722.00;;;;4924664;29;20232;-74
2023/09/14 01:17:50;;;;;;;4.07;2.10;;;;;13.80;101717.00;;;;4919336;29;20646;-74
2023/09/14 01:20:51;;;;;;;4.73;2.17;;;;;13.80;101716.00;;;;4917556;29;20260;-74
2023/09/14 01:23:43;;;;;;;5.23;2.13;;;;;13.80;101720.00;;;;4923560;29;20240;-72
2023/09/14 01:26:32;;;;;;;9.77;2.47;;;;;13.80;101713.00;;;;4923857;29;20260;-74
2023/09/14 01:29:18;;;;;;;4.43;2.20;;;;;13.80;101719.00;;;;4919988;29;20242;-73
2023/09/14 01:32:05;;;;;;;6.13;2.73;;;;;13.80;101716.00;;;;4919312;29;20266;-74
2023/09/14 01:34:51;;;;;;;4.60;2.07;;;;;13.80;101728.00;;;;4927225;29;20241;-73
2023/09/14 01:37:38;;;;;;;7.53;2.37;;;;;13.80;101723.00;;;;4911418;29;20237;-75
2023/09/14 01:40:26;;;;;;;4.17;2.23;;;;;13.80;101726.00;;;;4914027;29;20234;-75
2023/09/14 01:43:16;;;;;;;3.27;2.10;;;;;13.80;101736.00;;;;4919322;29;20242;-71
2023/09/14 01:46:03;;;;;;;6.80;2.40;;;;;13.80;101733.00;;;;4925019;29;20604;-74
2023/09/14 01:48:50;;;;;;;5.47;2.40;;;;;13.90;101735.00;;;;4921560;28;20249;-74
2023/09/14 01:51:36;;;;;;;6.63;2.60;;;;;13.90;101738.00;;;;4929760;29;20364;-71
2023/09/14 01:54:23;;;;;;;7.23;2.70;;;;;14.00;101744.00;;;;4914194;28;20233;-74
2023/09/14 01:57:09;;;;;;;8.17;2.30;;;;;14.00;101736.00;;;;4917589;29;20746;-74
2023/09/14 01:59:57;;;;;;;8.93;2.40;;;;;14.10;101737.00;;;;4923605;28;20245;-71
2023/09/14 02:02:43;;;;;;;7.37;2.37;;;;;14.10;101729.00;;;;4915853;29;20755;-74
2023/09/14 02:05:29;;;;;;;3.67;2.17;;;;;14.10;101738.00;;;;4926252;29;20228;-73
2023/09/14 02:08:16;;;;;;;4.83;1.93;;;;;14.10;101742.00;;;;4923560;28;20265;-74
2023/09/14 02:11:03;;;;;;;7.13;2.50;;;;;14.10;101736.00;;;;4925452;29;20236;-74
2023/09/14 02:13:49;;;;;;;6.43;2.43;;;;;14.20;101740.00;;;;4929174;29;20544;-71
2023/09/14 02:16:36;;;;;;;5.57;2.23;;;;;14.20;101732.00;;;;4919907;29;20245;-74
2023/09/14 02:19:23;;;;;;;6.63;2.20;;;;;14.20;101729.00;;;;4912305;29;20237;-74
2023/09/14 02:22:09;;;;;;;3.53;2.33;;;;;14.20;101734.00;;;;4914992;28;20238;-74
2023/09/14 02:24:55;;;;;;;4.23;2.20;;;;;14.10;101725.00;;;;4927449;29;20333;-74
2023/09/14 02:27:42;;;;;;;5.97;2.40;;;;;14.10;101726.00;;;;4924653;29;20238;-74
2023/09/14 02:30:28;;;;;;;8.90;2.57;;;;;14.10;101721.00;;;;4920721;28;20238;-74
2023/09/14 02:33:16;;;;;;;5.27;2.17;;;;;14.10;101713.00;;;;4915896;28;20302;-74
2023/09/14 02:36:02;;;;;;;5.03;2.30;;;;;14.10;101713.00;;;;4917805;29;20232;-74
2023/09/14 02:38:49;;;;;;;5.00;2.17;;;;;14.10;101719.00;;;;4920374;28;20234;-74
2023/09/14 02:41:35;;;;;;;6.87;2.50;;;;;14.10;101722.00;;;;4922360;28;20277;-73
2023/09/14 02:44:21;;;;;;;3.87;2.10;;;;;14.10;101718.00;;;;4922938;28;20652;-74
2023/09/14 02:47:08;;;;;;;6.13;2.47;;;;;14.10;101720.00;;;;4914109;28;20233;-73
2023/09/14 02:49:56;;;;;;;6.13;2.00;;;;;14.10;101722.00;;;;4920071;28;20231;-74
2023/09/14 02:52:42;;;;;;;8.13;2.53;;;;;14.00;101727.00;;;;4924233;29;20233;-74
2023/09/14 02:55:28;;;;;;;5.63;2.30;;;;;14.00;101728.00;;;;4923743;28;20608;-73
2023/09/14 02:58:15;;;;;;;7.90;3.00;;;;;14.00;101721.00;;;;4926737;28;20371;-73
2023/09/14 03:01:08;;;;;;;9.53;2.47;;;;;14.00;101725.00;;;;4920401;29;21105;-73
2023/09/14 03:03:54;;;;;;;5.80;2.57;;;;;14.10;101722.00;;;;4917665;29;20313;-73
2023/09/14 03:06:42;;;;;;;6.37;2.40;;;;;14.10;101725.00;;;;4921103;29;20229;-74
2023/09/14 03:09:28;;;;;;;8.33;2.50;;;;;14.10;101718.00;;;;4919120;29;20240;-73
2023/09/14 03:12:15;;;;;;;5.70;2.20;;;;;14.10;101719.00;;;;4924577;28;20357;-73
2023/09/14 03:15:01;;;;;;;6.13;2.50;;;;;14.10;101724.00;;;;4922315;29;20619;-72
2023/09/14 03:17:48;;;;;;;3.50;2.30;;;;;14.10;101718.00;;;;4916054;29;20355;-74
2023/09/14 03:20:34;;;;;;;5.37;2.33;;;;;14.10;101723.00;;;;4925084;29;20241;-73
2023/09/14 03:23:22;;;;;;;6.60;2.37;;;;;14.10;101729.00;;;;4916559;29;20236;-73
2023/09/14 03:26:08;;;;;;;4.90;2.50;;;;;14.10;101728.00;;;;4915279;29;20690;-73
2023/09/14 03:28:55;;;;;;;7.63;2.53;;;;;14.00;101725.00;;;;4922460;29;20233;-74
2023/09/14 03:31:41;;;;;;;6.17;2.43;;;;;14.10;101715.00;;;;4917479;29;20236;-73
2023/09/14 03:34:27;;;;;;;5.97;2.73;;;;;14.10;101709.00;;;;4918023;29;20252;-73
2023/09/14 03:37:13;;;;;;;6.77;2.73;;;;;14.10;101715.00;;;;4928055;29;20314;-74
2023/09/14 03:40:01;;;;;;;6.30;2.57;;;;;14.10;101727.00;;;;4918554;29;20342;-73
2023/09/14 03:42:49;;;;;;;4.17;2.77;;;;;14.10;101721.00;;;;4914468;28;20888;-73
2023/09/14 03:45:36;;;;;;;4.53;2.40;;;;;14.10;101728.00;;;;4915594;28;20244;-74
2023/09/14 03:48:23;;;;;;;5.50;2.43;;;;;14.10;101728.00;;;;4924377;28;20767;-74
2023/09/14 03:51:09;;;;;;;7.63;2.50;;;;;14.10;101721.00;;;;4916087;29;20368;-73
2023/09/14 03:53:55;;;;;;;8.37;2.60;;;;;14.10;101721.00;;;;4910359;29;20232;-72
2023/09/14 03:56:43;;;;;;;5.73;2.47;;;;;14.10;101720.00;;;;4908845;29;20299;-73
2023/09/14 03:59:29;;;;;;;6.00;2.80;;;;;14.10;101727.00;;;;4913532;29;20285;-73
2023/09/14 04:02:16;;;;;;;8.57;3.00;;;;;14.00;101729.00;;;;4916616;29;20232;-74
2023/09/14 04:05:11;;;;;;;7.67;2.30;;;;;14.00;101728.00;;;;4915570;29;20228;-74
2023/09/14 04:07:58;;;;;;;6.37;2.73;;;;;14.00;101735.00;;;;4912741;29;20253;-74
2023/09/14 04:10:44;;;;;;;6.93;2.50;;;;;14.00;101722.00;;;;4919341;29;20606;-74
2023/09/14 04:13:34;;;;;;;4.90;2.40;;;;;14.00;101725.00;;;;4922428;29;20251;-74
2023/09/14 04:16:21;;;;;;;7.50;2.67;;;;;14.00;101733.00;;;;4914548;29;20236;-74
2023/09/14 04:19:07;;;;;;;5.80;2.53;;;;;14.00;101727.00;;;;4921551;29;20319;-73
2023/09/14 04:21:53;;;;;;;5.90;2.80;;;;;14.00;101727.00;;;;4925667;29;20240;-74
2023/09/14 04:24:42;;;;;;;4.33;2.23;;;;;14.00;101732.00;;;;4921823;29;20631;-74
2023/09/14 04:27:28;;;;;;;7.03;2.33;;;;;14.00;101745.00;;;;4912014;29;20251;-74
2023/09/14 04:30:16;;;;;;;6.20;2.50;;;;;13.90;101737.00;;;;4924240;29;20232;-73
2023/09/14 04:33:03;;;;;;;9.23;2.93;;;;;14.00;101742.00;;;;4914624;29;20817;-73
2023/09/14 04:35:55;;;;;;;5.20;2.50;;;;;14.00;101746.00;;;;4924724;29;20244;-73
2023/09/14 04:38:41;;;;;;;5.40;2.50;;;;;14.10;101734.00;;;;4924562;29;20425;-74
2023/09/14 04:41:27;;;;;;;6.60;2.50;;;;;14.10;101733.00;;;;4922542;29;20240;-74
2023/09/14 04:44:14;;;;;;;4.67;2.30;;;;;14.00;101742.00;;;;4916857;29;20233;-74
2023/09/14 04:47:01;;;;;;;5.27;2.50;;;;;14.00;101736.00;;;;4926039;28;20236;-74
2023/09/14 04:49:48;;;;;;;3.20;2.40;;;;;13.90;101747.00;;;;4927985;29;20305;-74
2023/09/14 04:52:34;;;;;;;5.80;2.57;;;;;13.90;101749.00;;;;4924021;29;20245;-74
2023/09/14 04:55:21;;;;;;;4.60;2.50;;;;;14.00;101748.00;;;;4919201;29;20232;-74
2023/09/14 04:58:07;;;;;;;3.17;2.60;;;;;14.00;101739.00;;;;4921116;29;20242;-74
2023/09/14 05:00:53;;;;;;;7.30;2.47;;;;;14.00;101747.00;;;;4924690;29;20900;-73
2023/09/14 05:03:41;;;;;;;4.13;2.47;;;;;13.90;101744.00;;;;4910787;29;20325;-73
2023/09/14 05:06:28;;;;;;;8.07;3.00;;;;;13.90;101739.00;;;;4927375;29;20339;-71
2023/09/14 05:09:14;;;;;;;4.00;2.60;;;;;13.90;101754.00;;;;4924951;29;20604;-72
2023/09/14 05:12:00;;;;;;;4.77;2.60;;;;;13.90;101746.00;;;;4923395;29;20237;-74
2023/09/14 05:14:47;;;;;;;6.10;2.73;;;;;13.90;101744.00;;;;4927685;29;20236;-74
2023/09/14 05:17:34;;;;;;;4.67;2.30;;;;;13.90;101740.00;;;;4914309;29;20265;-74
2023/09/14 05:20:22;;;;;;;4.47;2.70;;;;;13.80;101751.00;;;;4915705;29;20339;-75
2023/09/14 05:23:08;;;;;;;5.50;2.50;;;;;13.80;101747.00;;;;4919723;29;20743;-72
2023/09/14 05:25:55;;;;;;;5.53;2.53;;;;;13.80;101746.00;;;;4924036;29;20275;-75
2023/09/14 05:28:42;;;;;;;5.43;2.50;;;;;13.80;101750.00;;;;4925373;29;20239;-74
2023/09/14 05:31:29;;;;;;;5.90;3.00;;;;;13.80;101750.00;;;;4919234;29;20240;-73
2023/09/14 05:34:15;;;;;;;5.47;2.50;;;;;13.80;101748.00;;;;4924328;29;20360;-74
2023/09/14 05:37:03;;;;;;;6.33;2.77;;;;;13.80;101751.00;;;;4921098;29;20229;-73
2023/09/14 05:39:50;;;;;;;7.00;2.80;;;;;13.90;101750.00;;;;4923127;29;21924;-74
2023/09/14 05:42:37;;;;;;;4.53;2.60;;;;;13.90;101751.00;;;;4913767;29;20820;-74
2023/09/14 05:45:23;;;;;;;4.90;2.50;;;;;13.90;101756.00;;;;4928534;29;20258;-74
2023/09/14 05:48:10;;;;;;;6.57;2.90;;;;;14.00;101751.00;;;;4919940;29;20380;-73
2023/09/14 05:50:56;;;;;;;7.80;2.90;;;;;14.00;101750.00;;;;4921852;29;20381;-73
2023/09/14 05:53:44;;;;;;;7.27;2.60;;;;;14.10;101760.00;;;;4922087;29;20241;-74
2023/09/14 05:56:30;;;;;;;6.03;2.67;;;;;14.10;101757.00;;;;4919759;28;20719;-75
2023/09/14 05:59:17;;;;;;;4.70;2.73;;;;;14.00;101767.00;;;;4925878;28;20245;-74
2023/09/14 06:02:18;;;;;;;3.87;2.43;;;;;14.10;101770.00;;;;4918607;29;20237;-74
2023/09/14 06:05:05;;;;;;;8.43;2.93;;;;;14.20;101763.00;;;;4928253;29;20367;-73
2023/09/14 06:08:09;;;;;;;7.20;2.80;;;;;14.20;101769.00;;;;4923619;29;20237;-74
2023/09/14 06:10:57;;;;;;;4.87;2.80;;;;;14.20;101780.00;;;;4916328;29;20233;-74
2023/09/14 06:13:43;;;;;;;4.40;2.50;;;;;14.20;101782.00;;;;4916438;29;20245;-74
2023/09/14 06:16:29;;;;;;;4.30;2.60;;;;;14.20;101778.00;;;;4912945;29;20359;-74
2023/09/14 06:19:16;;;;;;;5.03;2.50;;;;;14.30;101789.00;;;;4921888;29;21027;-74
2023/09/14 06:22:02;;;;;;;4.83;2.37;;;;;14.30;101792.00;;;;4916881;29;20365;-74
2023/09/14 06:24:48;;;;;;;10.23;2.90;;;;;14.30;101785.00;;;;4926399;28;20333;-74
2023/09/14 06:27:36;;;;;;;5.43;2.90;;;;;14.40;101783.00;;;;4911441;29;20356;-74
2023/09/14 06:30:22;;;;;;;8.33;2.80;;;;;14.40;101782.00;;;;4926333;29;20851;-74
2023/09/14 06:33:09;;;;;;;6.43;3.10;;;;;14.50;101779.00;;;;4924427;28;20230;-74
2023/09/14 06:35:56;;;;;;;9.10;3.10;;;;;14.50;101784.00;;;;4929269;28;20233;-74
2023/09/14 06:38:42;;;;;;;10.77;3.40;;;;;14.60;101784.00;;;;4919062;29;20747;-74
2023/09/14 06:41:28;;;;;;;5.70;3.03;;;;;14.50;101783.00;;;;4925281;29;20252;-73
2023/09/14 06:44:18;;;;;;;7.83;3.03;;;;;14.60;101783.00;;;;4926025;29;20619;-75
2023/09/14 06:47:05;;;;;;;7.87;3.20;;;;;14.60;101783.00;;;;4919712;28;20302;-74
2023/09/14 06:49:51;;;;;;;8.83;3.07;;;;;14.70;101789.00;;;;4912913;29;20897;-75
2023/09/14 06:52:37;;;;;;;6.73;2.80;;;;;14.80;101784.00;;;;4909889;29;20242;-73
2023/09/14 06:55:24;;;;;;;8.27;3.10;;;;;14.90;101788.00;;;;4922780;29;20233;-72
2023/09/14 06:58:10;;;;;;;12.53;3.50;;;;;14.90;101796.00;;;;4918612;29;20267;-72
2023/09/14 07:01:02;;;;;;;6.77;3.37;;;;;14.90;101795.00;;;;4924434;29;20253;-72
2023/09/14 07:03:50;;;;;;;7.17;2.97;;;;;15.00;101797.00;;;;4917491;28;20242;-72
2023/09/14 07:06:37;;;;;;;5.20;2.87;;;;;15.00;101797.00;;;;4918799;29;20236;-72
2023/09/14 07:09:24;;;;;;;13.43;3.73;;;;;15.10;101791.00;;;;4922603;29;20230;-73
2023/09/14 07:12:10;;;;;;;6.90;3.10;;;;;15.10;101797.00;;;;4923861;29;20238;-73
2023/09/14 07:14:57;;;;;;;6.73;3.13;;;;;15.20;101789.00;;;;4920994;29;20706;-72
2023/09/14 07:17:44;;;;;;;10.67;3.53;;;;;15.30;101801.00;;;;4925432;29;20353;-72
2023/09/14 07:20:31;;;;;;;10.20;2.90;;;;;15.30;101796.00;;;;4925826;29;20237;-73
2023/09/14 07:23:18;;;;;;;11.50;2.97;;;;;15.40;101794.00;;;;4922643;28;20882;-72
2023/09/14 07:26:07;;;;;;;9.67;3.43;;;;;15.40;101800.00;;;;4921281;29;20264;-73
2023/09/14 07:28:53;;;;;;;8.17;3.30;;;;;15.50;101798.00;;;;4924098;29;20250;-73
2023/09/14 07:31:40;;;;;;;8.13;3.10;;;;;15.50;101798.00;;;;4917459;28;20708;-71
2023/09/14 07:34:28;;;;;;;8.27;2.90;;;;;15.60;101795.00;;;;4921346;29;20268;-69
2023/09/14 07:37:14;;;;;;;7.10;3.13;;;;;15.60;101807.00;;;;4921314;29;20227;-69
2023/09/14 07:40:01;;;;;;;5.03;3.20;;;;;15.60;101812.00;;;;4922416;29;20373;-73
2023/09/14 07:42:47;;;;;;;10.73;3.30;;;;;15.70;101812.00;;;;4922407;29;20243;-74
2023/09/14 07:45:34;;;;;;;9.03;3.17;;;;;15.80;101818.00;;;;4922013;29;20241;-72
2023/09/14 07:48:21;;;;;;;5.73;3.00;;;;;15.90;101823.00;;;;4927129;29;20489;-72
2023/09/14 07:51:09;;;;;;;7.63;3.00;;;;;15.90;101820.00;;;;4912130;29;20243;-72
2023/09/14 07:53:55;;;;;;;12.57;2.93;;;;;16.00;101821.00;;;;4922863;29;20602;-72
2023/09/14 07:56:42;;;;;;;13.00;3.20;;;;;16.20;101823.00;;;;4917471;29;20261;-73
2023/09/14 07:59:29;;;;;;;9.90;2.60;;;;;16.30;101816.00;;;;4913351;29;20244;-72
2023/09/14 08:02:16;;;;;;;11.50;3.00;;;;;16.30;101818.00;;;;4921300;28;20232;-72
2023/09/14 08:05:02;;;;;;;6.50;3.00;;;;;16.40;101815.00;;;;4920812;29;20235;-68
2023/09/14 08:07:50;;;;;;;8.40;2.87;;;;;16.50;101817.00;;;;4914465;29;20244;-73
2023/09/14 08:10:36;;;;;;;9.83;2.83;;;;;16.60;101810.00;;;;4910829;29;20834;-72
2023/09/14 08:13:23;;;;;;;5.83;2.47;;;;;16.70;101816.00;;;;4917818;29;20236;-73
2023/09/14 08:16:09;;;;;;;4.90;2.60;;;;;16.80;101813.00;;;;4926470;29;20231;-70
2023/09/14 08:18:56;;;;;;;5.30;2.37;;;;;16.80;101816.00;;;;4924821;29;20268;-72
2023/09/14 08:21:43;;;;;;;6.23;2.23;;;;;16.90;101822.00;;;;4922383;28;20320;-73
2023/09/14 08:24:30;;;;;;;6.57;2.43;;;;;17.00;101818.00;;;;4921534;29;20237;-74
2023/09/14 08:27:17;;;;;;;8.43;2.33;;;;;17.10;101826.00;;;;4920521;28;20277;-72
2023/09/14 08:30:03;;;;;;;3.53;1.90;;;;;17.20;101826.00;;;;4921687;29;20234;-72
2023/09/14 08:32:50;;;;;;;7.47;2.00;;;;;17.30;101828.00;;;;4925505;29;20252;-71
2023/09/14 08:35:36;;;;;;;6.07;2.30;;;;;17.40;101836.00;;;;4926626;29;20239;-73
2023/09/14 08:38:26;;;;;;;6.63;2.10;;;;;17.50;101822.00;;;;4922898;29;20232;-73
2023/09/14 08:41:21;;;;;;;4.23;2.20;;;;;17.60;101837.00;;;;4921575;29;20236;-74
2023/09/14 08:44:08;;;;;;;5.87;2.20;;;;;17.60;101830.00;;;;4909501;29;20221;-72
2023/09/14 08:46:57;;;;;;;6.13;1.80;;;;;17.70;101823.00;;;;4917332;28;20362;-74
2023/09/14 08:49:44;;;;;;;4.83;2.10;;;;;17.80;101822.00;;;;4928486;29;20236;-72
2023/09/14 08:52:31;;;;;;;6.73;2.17;;;;;17.80;101817.00;;;;4917577;29;20301;-70
2023/09/14 08:55:19;;;;;;;8.47;2.00;;;;;17.90;101817.00;;;;4927020;29;20229;-70
2023/09/14 08:58:08;;;;;;;6.67;2.27;;;;;18.00;101820.00;;;;4925465;29;20652;-72
2023/09/14 09:00:55;;;;;;;6.90;1.80;;;;;18.00;101827.00;;;;4924585;28;20311;-72
2023/09/14 09:03:41;;;;;;;9.60;1.87;;;;;18.00;101819.00;;;;4924461;28;20245;-72
2023/09/14 09:06:29;;;;;;;5.53;1.70;;;;;18.10;101824.00;;;;4910662;29;20341;-71
2023/09/14 09:09:18;;;;;;;8.43;1.73;;;;;18.00;101822.00;;;;4924959;29;20221;-72
2023/09/14 09:12:05;;;;;;;7.90;1.90;;;;;18.00;101813.00;;;;4924950;29;20240;-71
2023/09/14 09:14:55;;;;;;;3.77;1.63;;;;;18.10;101823.00;;;;4924672;29;20598;-71
2023/09/14 09:17:44;;;;;;;3.63;1.70;;;;;18.10;101826.00;;;;4923760;28;20241;-72
2023/09/14 09:20:30;;;;;;;5.07;1.90;;;;;18.20;101826.00;;;;4917168;29;20284;-72
2023/09/14 09:23:20;;;;;;;5.70;1.90;;;;;18.30;101823.00;;;;4918235;29;20241;-72
2023/09/14 09:26:09;;;;;;;5.77;1.97;;;;;18.40;101825.00;;;;4923309;29;20249;-72
2023/09/14 09:28:55;;;;;;;9.70;1.93;;;;;18.60;101824.00;;;;4926042;29;20627;-72
2023/09/14 09:31:44;;;;;;;5.13;1.90;;;;;18.60;101822.00;;;;4927829;29;20240;-71
2023/09/14 09:34:33;;;;;;;9.23;1.90;;;;;18.70;101822.00;;;;4918206;29;20234;-71
2023/09/14 09:37:19;;;;;;;5.00;1.90;;;;;18.90;101828.00;;;;4922130;29;20233;-72
2023/09/14 09:40:12;;;;;;;6.00;1.97;;;;;18.90;101821.00;;;;4912715;29;20367;-71
2023/09/14 09:43:03;;;;;;;6.27;1.43;;;;;19.00;101812.00;;;;4925574;28;20241;-73
2023/09/14 09:45:54;;;;;;;5.30;1.90;;;;;19.10;101819.00;;;;4921125;28;20225;-74
2023/09/14 09:48:42;;;;;;;4.93;1.80;;;;;19.10;101812.00;;;;4923359;29;20774;-74
2023/09/14 09:51:32;;;;;;;8.70;2.00;;;;;19.20;101809.00;;;;4910855;29;21042;-73
2023/09/14 09:54:20;;;;;;;6.30;1.87;;;;;19.40;101812.00;;;;4938580;29;20237;-74
2023/09/14 09:57:08;;;;;;;5.20;1.70;;;;;19.40;101820.00;;;;4936398;29;20233;-75
2023/09/14 09:59:55;;;;;;;4.50;1.80;;;;;19.50;101812.00;;;;4923869;29;20282;-74
2023/09/14 10:02:42;;;;;;;6.33;2.00;;;;;19.60;101810.00;;;;4933629;29;20249;-74
2023/09/14 10:05:31;;;;;;;4.90;1.87;;;;;19.70;101802.00;;;;4943641;29;20277;-73
2023/09/14 10:08:19;;;;;;;4.37;1.67;;;;;19.80;101809.00;;;;4940991;29;20237;-74
2023/09/14 10:11:07;;;;;;;3.73;1.70;;;;;19.90;101815.00;;;;4931198;28;20319;-73
2023/09/14 10:13:53;;;;;;;5.30;1.90;;;;;20.00;101808.00;;;;4942093;28;20253;-73
2023/09/14 10:16:41;;;;;;;5.60;1.80;;;;;20.10;101812.00;;;;4926678;29;20261;-73
2023/09/14 10:19:29;;;;;;;5.60;1.70;;;;;20.30;101802.00;;;;4927378;29;20379;-73
2023/09/14 10:22:18;;;;;;;6.87;1.80;;;;;20.30;101808.00;;;;4913168;29;20241;-74
2023/09/14 10:25:08;;;;;;;5.30;1.70;;;;;20.30;101810.00;;;;4927864;29;20699;-73
2023/09/14 10:27:56;;;;;;;5.53;1.67;;;;;20.30;101803.00;;;;4918622;29;20612;-72
2023/09/14 10:30:44;;;;;;;3.57;1.60;;;;;20.40;101801.00;;;;4920869;28;20236;-73
2023/09/14 10:33:31;;;;;;;6.67;1.90;;;;;20.50;101807.00;;;;4922522;29;20246;-72
2023/09/14 10:36:20;;;;;;;7.37;2.40;;;;;20.40;101793.00;;;;4926533;29;20350;-74
2023/09/14 10:39:09;;;;;;;4.77;1.90;;;;;20.40;101810.00;;;;4917295;29;20475;-73
2023/09/14 10:41:55;;;;;;;3.30;1.60;;;;;20.30;101794.00;;;;4922316;28;20262;-74
2023/09/14 10:44:42;;;;;;;5.20;1.70;;;;;20.10;101802.00;;;;4923391;29;20256;-74
2023/09/14 10:47:36;;;;;;;6.30;1.80;;;;;19.90;101806.00;;;;4922648;29;20358;-74
2023/09/14 10:50:23;;;;;;;6.77;2.13;;;;;19.70;101805.00;;;;4924875;29;20234;-74
2023/09/14 10:53:10;;;;;;;3.73;1.70;;;;;19.60;101798.00;;;;4921855;29;20261;-73
2023/09/14 10:55:57;;;;;;;5.23;1.90;;;;;19.70;101800.00;;;;4919370;29;20252;-72
2023/09/14 10:58:44;;;;;;;5.43;1.90;;;;;20.10;101802.00;;;;4925312;29;20296;-74
2023/09/14 11:01:31;;;;;;;2.97;1.60;;;;;20.10;101800.00;;;;4921665;29;20314;-74
2023/09/14 11:05:11;;;;;;;4.77;1.73;;;;;19.90;101796.00;;;;4915484;29;20249;-73
2023/09/14 11:08:00;;;;;;;4.57;2.37;;;;;19.80;101790.00;;;;4920805;29;20329;-74
2023/09/14 11:10:55;;;;;;;3.80;1.90;;;;;20.10;101789.00;;;;4920720;29;20312;-75
2023/09/14 11:13:57;;;;;;;4.83;1.90;;;;;20.30;101791.00;;;;4922325;28;20266;-74
2023/09/14 11:16:47;;;;;;;3.00;1.93;;;;;20.50;101790.00;;;;4923102;29;20610;-74
2023/09/14 11:19:45;;;;;;;5.50;2.20;;;;;20.80;101787.00;;;;4920131;29;20882;-75
2023/09/14 11:22:43;;;;;;;6.90;2.07;;;;;21.10;101787.00;;;;4921309;28;21036;-74
2023/09/14 11:25:33;;;;;;;5.63;1.87;;;;;21.20;101779.00;;;;4917224;28;20239;-75
2023/09/14 11:28:39;;;;;;;5.97;2.07;;;;;21.50;101777.00;;;;4923382;29;20254;-75
2023/09/14 11:31:31;;;;;;;4.53;2.20;;;;;21.70;101780.00;;;;4924693;29;20246;-74
2023/09/14 11:34:39;;;;;;;5.83;2.00;;;;;21.80;101777.00;;;;4924344;28;20234;-75
2023/09/14 11:37:31;;;;;;;4.57;2.07;;;;;21.90;101775.00;;;;4920639;29;20613;-74
2023/09/14 11:40:31;;;;;;;4.33;1.80;;;;;22.00;101781.00;;;;4920104;29;20240;-75
2023/09/14 11:43:23;;;;;;;4.43;1.90;;;;;22.30;101780.00;;;;4923664;28;20241;-75
2023/09/14 11:46:30;;;;;;;6.73;2.20;;;;;22.50;101772.00;;;;4926150;28;20660;-73
2023/09/14 11:49:23;;;;;;;6.20;2.20;;;;;22.80;101780.00;;;;4927764;29;20233;-75
2023/09/14 11:52:11;;;;;;;4.67;2.17;;;;;22.90;101786.00;;;;4926954;29;20245;-73
2023/09/14 11:54:57;;;;;;;4.43;1.97;;;;;23.00;101776.00;;;;4917153;29;20237;-75
2023/09/14 11:57:44;;;;;;;5.93;2.03;;;;;22.60;101779.00;;;;4913781;28;20238;-73
2023/09/14 12:00:37;;;;;;;4.23;2.07;;;;;22.20;101783.00;;;;4918524;29;20228;-72
2023/09/14 12:03:23;;;;;;;5.50;2.20;;;;;21.70;101786.00;;;;4910610;28;20256;-74
2023/09/14 12:06:12;;;;;;;3.60;2.30;;;;;21.70;101782.00;;;;4912939;28;20236;-74
2023/09/14 12:08:59;;;;;;;6.27;2.47;;;;;21.60;101789.00;;;;4919212;29;20253;-73
2023/09/14 12:11:46;;;;;;;5.43;2.10;;;;;21.40;101791.00;;;;4914445;29;20232;-73
2023/09/14 12:14:36;;;;;;;4.30;2.40;;;;;21.10;101784.00;;;;4917424;29;20765;-73
2023/09/14 12:17:24;;;;;;;5.63;2.33;;;;;21.30;101777.00;;;;4924317;29;20365;-73
2023/09/14 12:20:12;;;;;;;4.73;2.73;;;;;21.70;101773.00;;;;4912383;28;20233;-75
2023/09/14 12:23:01;;;;;;;5.03;2.40;;;;;22.00;101769.00;;;;4913573;29;20643;-73
2023/09/14 12:25:47;;;;;;;5.13;2.40;;;;;22.40;101769.00;;;;4909700;29;20240;-73
2023/09/14 12:28:34;;;;;;;5.00;2.30;;;;;22.60;101763.00;;;;4920039;28;20237;-73
2023/09/14 12:31:21;;;;;;;4.73;2.67;;;;;22.80;101766.00;;;;4919199;28;20615;-73
2023/09/14 12:34:08;;;;;;;4.53;2.50;;;;;22.90;101766.00;;;;4923394;29;20237;-74
2023/09/14 12:36:55;;;;;;;5.40;2.80;;;;;23.00;101765.00;;;;4916881;29;20233;-73
2023/09/14 12:39:45;;;;;;;4.20;2.53;;;;;23.20;101763.00;;;;4915364;29;20305;-73
2023/09/14 12:42:32;;;;;;;7.77;2.83;;;;;23.40;101766.00;;;;4917366;29;20269;-71
2023/09/14 12:45:18;;;;;;;6.20;2.70;;;;;23.60;101773.00;;;;4912277;29;20237;-71
2023/09/14 12:48:07;;;;;;;6.27;2.33;;;;;23.60;101762.00;;;;4916390;29;20722;-71
2023/09/14 12:50:53;;;;;;;8.13;2.67;;;;;23.60;101760.00;;;;4926190;28;20236;-71
2023/09/14 12:53:43;;;;;;;5.93;2.90;;;;;23.60;101760.00;;;;4923975;29;20241;-70
2023/09/14 12:56:31;;;;;;;5.67;2.90;;;;;23.60;101756.00;;;;4909389;29;20304;-71
2023/09/14 12:59:18;;;;;;;4.20;2.77;;;;;23.80;101753.00;;;;4922586;29;20269;-70
2023/09/14 13:02:04;;;;;;;5.37;2.73;;;;;24.00;101750.00;;;;4921455;29;20272;-71
2023/09/14 13:04:51;;;;;;;6.43;2.60;;;;;24.00;101754.00;;;;4919862;29;20241;-70
2023/09/14 13:07:38;;;;;;;5.90;2.93;;;;;24.00;101747.00;;;;4927028;28;20235;-69
2023/09/14 13:10:26;;;;;;;3.83;2.67;;;;;24.00;101746.00;;;;4921929;29;21157;-71
2023/09/14 13:13:15;;;;;;;4.57;2.60;;;;;24.10;101741.00;;;;4919344;28;20778;-69
2023/09/14 13:16:01;;;;;;;3.87;2.70;;;;;24.10;101734.00;;;;4921429;29;20931;-71
2023/09/14 13:18:48;;;;;;;6.47;2.90;;;;;24.20;101738.00;;;;4916298;28;20240;-71
2023/09/14 13:21:38;;;;;;;6.57;2.70;;;;;24.10;101730.00;;;;4917474;29;20735;-70
2023/09/14 13:24:25;;;;;;;4.77;2.50;;;;;24.20;101735.00;;;;4913669;29;20229;-70
2023/09/14 13:27:11;;;;;;;6.43;2.53;;;;;24.30;101735.00;;;;4916021;28;20224;-71
2023/09/14 13:29:59;;;;;;;6.87;3.10;;;;;24.40;101741.00;;;;4924045;29;20228;-71
2023/09/14 13:32:45;;;;;;;4.97;2.63;;;;;24.50;101734.00;;;;4919907;28;20407;-70
2023/09/14 13:35:32;;;;;;;5.20;2.43;;;;;24.50;101732.00;;;;4923149;29;20265;-69
2023/09/14 13:38:19;;;;;;;6.23;2.60;;;;;24.70;101731.00;;;;4920464;29;20234;-70
2023/09/14 13:41:05;;;;;;;7.05;2.92;;;;;24.80;101727.00;;;;4929809;29;20722;-69
2023/09/14 13:43:52;;;;;;;3.75;2.42;;;;;25.00;101715.00;;;;4917582;29;20237;-71
2023/09/14 13:46:40;;;;;;;3.92;2.40;;;;;24.80;101713.00;;;;4925350;28;20241;-69
2023/09/14 13:49:26;;;;;;;5.40;2.63;;;;;24.90;101719.00;;;;4920219;29;20232;-72
2023/09/14 13:52:13;;;;;;;5.93;2.53;;;;;25.00;101720.00;;;;4918842;29;20233;-70